Latest Coastal Weather Observations for Townsville

IDQ60701

Issued at 8:42 am EST Wednesday 31 August 2016 (issued every 10 minutes, with the page automatically refreshed every 10 minutes)

About coastal observations | Map of coastal stations | Coastal observations for QLD | Marine services | Other Formats
Station Details ID: 032040 Name: TOWNSVILLE AERO Lat: -19.25 Lon: 146.77 Height: 4.34 m
Data from the previous 72 hours. | See also: Recent months at Townsville
Date/Time
EST
Temp
°C
Wind Pressure Rain since
9am
mm
Weather Cloud Vis
km
Sea
Height
m
Swell
Dir  Spd
kts
Gust
kts
hPa Trend Height
m
Period
s
Dir
31/08:30am 23.0 ESE 11 15 1021.8 - 0.0 - Mostly clear 10 - - - -
31/08:00am 22.1 ESE 10 14 1021.6 - 0.0 - Mostly clear 10 - - - -
31/07:30am 21.6 SE 9 13 1021.4 - 0.0 - Mostly clear 10 - - - -
31/07:00am 21.1 ESE 10 14 1021.2 - 0.0 - Mostly clear 10 - - - -
31/06:30am 20.8 ESE 5 8 1021.0 - 0.0 - Mostly clear 10 - - - -
31/06:00am 20.8 E 9 13 1020.7 F 0.0 - Mostly cloudy 10 - - - -
31/05:30am 20.3 ESE 7 9 1020.5 - 0.0 - Partly cloudy 10 - - - -
31/05:00am 20.8 E 7 10 1020.4 - 0.0 - Cloudy 10 - - - -
31/04:30am 20.9 E 4 6 1020.2 - 0.0 - Cloudy 10 - - - -
31/04:00am 20.8 SE 7 9 1020.2 - 0.0 - Cloudy 10 - - - -
31/03:30am 20.7 ESE 7 9 1020.5 - 0.0 - Cloudy 10 - - - -
31/03:06am 20.5 SE 8 10 1020.9 - 0.0 - Partly cloudy 10 - - - -
31/03:00am 20.5 SE 10 15 1020.9 F 0.0 Showers Partly cloudy 10 - - - -
31/02:50am 20.7 ESE 9 16 1021.0 - 0.0 - Partly cloudy 6 - - - -
31/02:30am 21.3 ESE 6 9 1021.0 - 0.0 - Partly cloudy 10 - - - -
31/02:00am 21.3 ESE 9 12 1021.2 - 0.0 - Partly cloudy 10 - - - -
31/01:30am 21.2 ESE 6 8 1021.3 - 0.0 - Partly cloudy 10 - - - -
31/01:00am 20.6 SE 9 10 1021.5 - 0.0 - Partly cloudy 10 - - - -
31/12:30am 21.1 SE 7 8 1021.9 - 0.0 - Partly cloudy 10 - - - -
31/12:00am 21.2 SE 6 8 1022.3 F 0.0 Drizzle Partly cloudy 10 - - - -
 
Date/Time
EST
Temp
°C
Wind Pressure Rain since
9am
mm
Weather Cloud Vis
km
Sea
Height
m
Swell
Dir  Spd
kts
Gust
kts
hPa Trend Height
m
Period
s
Dir
30/11:30pm 21.6 ESE 8 10 1022.4 - 0.0 - Partly cloudy 10 - - - -
30/11:00pm 21.7 SE 10 14 1022.6 - 0.0 - Cloudy 10 - - - -
30/10:30pm 21.8 SE 9 12 1022.5 - 0.0 - Partly cloudy 10 - - - -
30/10:00pm 22.0 SE 7 9 1022.4 - 0.0 - Cloudy 10 - - - -
30/09:30pm 21.8 SE 8 10 1022.4 - 0.0 - Partly cloudy 10 - - - -
30/09:00pm 21.9 ESE 9 13 1022.3 F 0.0 - Mostly clear 10 - - - -
30/08:30pm 22.3 ESE 8 10 1022.1 - 0.0 - Partly cloudy 10 - - - -
30/08:00pm 22.3 E 11 16 1021.8 - 0.0 - Partly cloudy 10 - - - -
30/07:30pm 22.9 ESE 13 19 1021.4 - 0.0 - Cloudy 10 - - - -
30/07:00pm 22.8 E 8 15 1021.2 - 0.0 - Partly cloudy 10 - - - -
30/06:30pm 23.3 ESE 11 15 1020.8 - 0.0 - Cloudy 10 - - - -
30/06:00pm 23.5 ESE 9 14 1020.8 R 0.0 - Cloudy 10 - - - -
30/05:30pm 23.7 ESE 11 15 1020.7 - 0.0 - Mostly clear 10 - - - -
30/05:00pm 23.8 E 13 17 1020.4 - 0.0 - Mostly clear 10 - - - -
30/04:30pm 24.1 E 15 19 1020.2 - 0.0 - Mostly clear 10 - - - -
30/04:00pm 24.3 E 14 17 1020.1 - 0.0 - Mostly clear 10 - - - -
30/03:30pm 24.9 E 14 18 1020.0 - 0.0 - Mostly clear 10 - - - -
30/03:00pm 25.6 E 15 18 1020.1 R 0.0 - Cloudy 10 - - - -
30/02:30pm 25.1 ENE 16 19 1020.2 - 0.0 - Mostly clear 10 - - - -
30/02:00pm 26.7 E 15 18 1020.5 - 0.0 - Mostly clear 10 - - - -
30/01:30pm 26.1 ENE 14 17 1020.7 - 0.0 - Mostly clear 10 - - - -
30/01:00pm 26.9 E 13 17 1021.2 - 0.0 - Mostly clear 10 - - - -
30/12:30pm 26.3 E 13 17 1021.7 - 0.0 - Mostly clear 10 - - - -
30/12:00pm 25.9 ENE 11 17 1022.1 R 0.0 - Partly cloudy 10 - - - -
30/11:30am 25.0 ENE 11 16 1022.6 - 0.0 - Partly cloudy 10 - - - -
30/11:00am 24.1 ENE 10 15 1022.9 - 0.0 - Mostly clear 10 - - - -
30/10:30am 24.1 E 8 13 1023.3 - 0.0 - Mostly clear 10 - - - -
30/10:00am 23.6 ESE 15 22 1023.4 - 0.0 - Mostly clear 10 - - - -
30/09:30am 24.1 ESE 11 17 1023.2 - 0.0 - Mostly clear 10 - - - -
30/09:00am 22.3 ESE 15 19 1022.9 R 0.6 Rain Partly cloudy 10 - - - -
30/08:30am 21.5 SE 11 15 1022.4 - 0.4 - Mostly clear 10 - - - -
30/08:00am 21.1 ESE 9 14 1021.9 - 0.4 - Mostly clear 10 - - - -
30/07:30am 20.0 SE 4 6 1021.7 - 0.4 - Mostly clear 10 - - - -
30/07:00am 19.4 SE 7 8 1021.3 - 0.4 - Mostly clear 10 - - - -
30/06:30am 18.9 SE 7 9 1021.1 - 0.4 - Mostly clear 10 - - - -
30/06:00am 19.1 ESE 6 8 1021.0 R 0.4 - Cloudy 10 - - - -
30/05:30am 18.8 SSE 7 11 1020.6 - 0.4 - Cloudy 10 - - - -
30/05:00am 19.2 SE 9 13 1020.1 - 0.4 - Partly cloudy 10 - - - -
30/04:44am 18.9 SE 11 16 1020.1 - 0.4 - Partly cloudy 10 - - - -
30/04:30am 19.0 ESE 11 16 1020.2 - 0.4 - Partly cloudy 5 - - - -
30/04:26am 19.0 ESE 11 14 1020.4 - 0.4 - Partly cloudy 6 - - - -
30/04:09am 19.4 ESE 9 12 1020.1 - 0.4 - Partly cloudy 10 - - - -
30/04:00am 19.2 E 8 13 1020.1 - 0.4 - Partly cloudy 7 - - - -
30/03:42am 19.4 NNE 9 11 1020.1 - 0.0 - Partly cloudy 6 - - - -
30/03:30am 20.6 ESE 8 10 1019.9 - 0.0 - Partly cloudy 10 - - - -
30/03:00am 21.0 ESE 9 14 1019.8 R 0.0 - Cloudy 10 - - - -
30/02:30am 21.2 ESE 9 13 1019.9 - 0.0 - Cloudy 10 - - - -
30/02:00am 20.9 SE 12 15 1019.8 - 0.0 - Cloudy 10 - - - -
30/01:30am 21.0 ESE 9 14 1020.0 - 0.0 - Cloudy 10 - - - -
30/01:00am 21.3 ESE 12 18 1020.2 - 0.0 - Cloudy 10 - - - -
30/12:30am 21.5 SE 13 18 1020.3 - 0.0 - Cloudy 10 - - - -
30/12:00am 21.5 SE 14 19 1020.4 F 0.0 - Cloudy 10 - - - -
 
Date/Time
EST
Temp
°C
Wind Pressure Rain since
9am
mm
Weather Cloud Vis
km
Sea
Height
m
Swell
Dir  Spd
kts
Gust
kts
hPa Trend Height
m
Period
s
Dir
29/11:30pm 21.5 SE 13 16 1020.7 - 0.0 - Cloudy 10 - - - -
29/11:00pm 21.6 ESE 13 19 1020.8 - 0.0 - Cloudy 10 - - - -
29/10:30pm 21.7 ESE 11 15 1020.8 - 0.0 - Cloudy 10 - - - -
29/10:00pm 22.0 ESE 10 14 1021.1 - 0.0 - Cloudy 10 - - - -
29/09:30pm 22.0 ESE 10 15 1021.0 - 0.0 - Cloudy 10 - - - -
29/09:00pm 22.2 ESE 12 17 1021.0 F 0.0 - Cloudy 10 - - - -
29/08:30pm 22.1 ESE 9 13 1020.9 - 0.0 - Cloudy 10 - - - -
29/08:00pm 21.9 ESE 8 12 1020.7 - 0.0 - Cloudy 10 - - - -
29/07:30pm 22.3 ESE 13 16 1020.5 - 0.0 - Cloudy 10 - - - -
29/07:00pm 22.3 ESE 11 15 1020.4 - 0.0 - Cloudy 10 - - - -
29/06:30pm 22.4 ESE 12 16 1020.3 - 0.0 - Cloudy 10 - - - -
29/06:00pm 22.6 ESE 13 17 1020.3 S 0.0 - Cloudy 10 - - - -
29/05:30pm 23.0 ESE 15 20 1020.1 - 0.0 - Mostly clear 10 - - - -
29/05:00pm 23.7 ESE 13 18 1019.8 - 0.0 - Mostly clear 10 - - - -
29/04:30pm 23.6 E 11 16 1019.8 - 0.0 - Mostly clear 10 - - - -
29/04:00pm 23.7 E 13 18 1019.8 - 0.0 - Mostly clear 10 - - - -
29/03:30pm 23.9 E 15 19 1019.5 - 0.0 - Mostly clear 10 - - - -
29/03:00pm 24.2 E 16 19 1019.7 R 0.0 - Cloudy 10 - - - -
29/02:30pm 24.6 E 13 16 1019.7 - 0.0 - Mostly clear 10 - - - -
29/02:00pm 24.7 ENE 15 17 1020.0 - 0.0 - Mostly clear 10 - - - -
29/01:30pm 24.7 E 11 17 1020.3 - 0.0 - Mostly clear 10 - - - -
29/01:00pm 24.9 E 15 21 1020.7 - 0.0 - Mostly clear 10 - - - -
29/12:30pm 25.2 E 13 19 1020.8 - 0.0 - Mostly clear 10 - - - -
29/12:00pm 24.6 E 14 18 1021.2 R 0.0 - Cloudy 10 - - - -
29/11:30am 24.4 E 11 18 1021.8 - 0.0 - Mostly clear 10 - - - -
29/11:00am 24.0 ESE 11 16 1022.0 - 0.0 - Mostly clear 10 - - - -
29/10:30am 24.5 ESE 15 19 1022.4 - 0.0 - Mostly clear 10 - - - -
29/10:00am 23.0 SE 13 17 1022.4 - 0.0 - Mostly clear 10 - - - -
29/09:30am 22.8 SE 9 14 1022.4 - 0.0 - Mostly clear 10 - - - -
29/09:00am 21.8 ESE 9 13 1022.3 S 0.0 - Mostly clear 10 - - - -
29/08:30am 20.9 SSE 6 10 1022.1 - 0.0 - Mostly clear 10 - - - -
29/08:00am 18.7 SW 1 5 1021.9 - 0.0 - Mostly clear 10 - - - -
29/07:30am 17.2 WNW 5 6 1021.5 - 0.0 - Mostly clear 10 - - - -
29/07:00am 14.8 WNW 4 5 1021.1 - 0.0 - Mostly clear 10 - - - -
29/06:30am 14.8 SW 4 5 1020.8 - 0.0 - Mostly clear 10 - - - -
29/06:00am 15.8 W 4 5 1020.6 R 0.0 - Mostly cloudy 10 - - - -
29/05:30am 15.4 WSW 3 7 1020.3 - 0.0 - Cloudy 10 - - - -
29/05:00am 15.2 CALM 0 0 1020.2 - 0.0 - Cloudy 10 - - - -
29/04:30am 14.6 CALM 0 0 1020.1 - 0.0 - Cloudy 10 - - - -
29/04:00am 14.7 W 4 6 1019.9 - 0.0 - Cloudy 10 - - - -
29/03:30am 14.9 WSW 4 5 1019.8 - 0.0 - Cloudy 10 - - - -
29/03:00am 16.4 SE 6 8 1019.8 F 0.0 - Mostly cloudy 10 - - - -
29/02:30am 15.3 SE 5 7 1020.0 - 0.0 - Cloudy 10 - - - -
29/02:00am 14.6 SSE 5 6 1020.0 - 0.0 - Partly cloudy 10 - - - -
29/01:30am 16.1 SSW 5 5 1020.3 - 0.0 - - 10 - - - -
29/01:00am 13.8 W 4 5 1020.7 - 0.0 - Partly cloudy 10 - - - -
29/12:30am 15.5 SSE 6 6 1020.9 - 0.0 - Partly cloudy 10 - - - -
29/12:00am 16.4 SE 5 7 1021.1 F 0.0 - Mostly clear 10 - - - -
 
Date/Time
EST
Temp
°C
Wind Pressure Rain since
9am
mm
Weather Cloud Vis
km
Sea
Height
m
Swell
Dir  Spd
kts
Gust
kts
hPa Trend Height
m
Period
s
Dir
28/11:30pm 15.5 CALM 0 3 1021.1 - 0.0 - Partly cloudy 10 - - - -
28/11:00pm 17.2 SSE 5 6 1021.1 - 0.0 - Partly cloudy 10 - - - -
28/10:30pm 16.8 SE 6 7 1020.9 - 0.0 - Partly cloudy 10 - - - -
28/10:00pm 17.5 SE 6 7 1021.1 - 0.0 - Partly cloudy 10 - - - -
28/09:30pm 17.3 SSE 6 7 1021.2 - 0.0 - Partly cloudy 10 - - - -
28/09:00pm 18.2 SSE 5 7 1021.3 F 0.0 - - 10 - - - -
28/08:30pm 17.9 E 7 10 1021.0 - 0.0 - - 10 - - - -
28/08:00pm 17.9 E 7 9 1020.9 - 0.0 - - 10 - - - -
28/07:30pm 18.1 E 4 6 1020.7 - 0.0 - - 10 - - - -
28/07:00pm 18.2 E 5 6 1020.4 - 0.0 - - 10 - - - -
28/06:30pm 18.4 ENE 6 8 1019.9 - 0.0 - - 10 - - - -
28/06:00pm 19.4 ENE 8 10 1019.7 F 0.0 - - 10 - - - -
28/05:30pm 20.5 ENE 10 14 1019.5 - 0.0 - - 10 - - - -
28/05:00pm 21.2 ENE 13 16 1019.6 - 0.0 - - 10 - - - -
28/04:30pm 21.6 NE 12 15 1019.5 - 0.0 - - 10 - - - -
28/04:00pm 21.8 ENE 11 14 1019.4 - 0.0 - - 10 - - - -
28/03:30pm 21.9 ENE 12 16 1019.4 - 0.0 - - 10 - - - -
28/03:00pm 22.0 NE 13 16 1019.4 F 0.0 - - 10 - - - -
28/02:30pm 23.0 NE 14 17 1019.6 - 0.0 - - 10 - - - -
28/02:00pm 22.2 ENE 12 16 1019.9 - 0.0 - - 10 - - - -
28/01:30pm 23.0 NE 12 17 1020.3 - 0.0 - - 10 - - - -
28/01:00pm 22.5 NE 12 16 1020.8 - 0.0 - - 10 - - - -
28/12:30pm 22.4 ENE 12 17 1021.3 - 0.0 - - 10 - - - -
28/12:00pm 22.3 ENE 13 16 1021.9 F 0.0 - Mostly clear 10 - - - -
28/11:30am 23.1 E 13 16 1022.4 - 0.0 - Mostly clear 10 - - - -
28/11:00am 22.0 E 10 16 1022.9 - 0.0 - - 10 - - - -
28/10:30am 21.7 ESE 10 15 1023.3 - 0.0 - - 10 - - - -
28/10:00am 21.5 ESE 9 15 1023.4 - 0.0 - - 10 - - - -
28/09:30am 20.3 ESE 10 14 1023.5 - 0.0 - - 10 - - - -
28/09:00am 19.9 SE 9 11 1023.4 S 0.0 - - 10 - - - -

Other Formats:

Comma delimited format used in spreadsheet applications
http://www.bom.gov.au/fwo/IDQ60701/IDQ60701.94294.axf

JavaScript Object Notation format (JSON) in row-major order
http://www.bom.gov.au/fwo/IDQ60701/IDQ60701.94294.json